Terminal Aerodrome Forecast
Issued by NWS Charleston, WV

Current Version | Previous Version | Graphics & Text | Print | Product List | Glossary On
Versions: 1 2 3 4 5 6 7 8 9 10 11 12 13 14 15 16 17 18 19 20 21 22 23 24
237
FTUS41 KRLX 171531 AAA
TAFPKB
TAF AMD
KPKB 171531Z 1716/1812 27003KT P6SM SCT060
     FM180000 00000KT P6SM SCT250
     FM180900 00000KT 2SM BR SCT001=

USA.gov is the U.S. government's official web portal to all federal, state and local government web resources and services.